Time;durP1;ratioP1;P1;durP2;ratioP2;P2;SDS_P1;SDS_P2;PMS_P1;PMS_P2;Temp;Humidity;BMP_temperature;BMP_pressure;BME280_temperature;BME280_humidity;BME280_pressure;Samples;Min_cycle;Max_cycle;Signal;HPM_P1;HPM_P2
2020/12/12 00:01:27;;;;;;;10.68;6.55;;;17.40;49.40;;;;;;5070093;28;20150;-78
2020/12/12 00:03:55;;;;;;;10.07;6.40;;;17.40;49.30;;;;;;5087252;28;20157;-78
2020/12/12 00:06:22;;;;;;;9.38;6.93;;;17.40;49.50;;;;;;5086928;28;20157;-78
2020/12/12 00:08:50;;;;;;;9.52;6.03;;;17.40;49.60;;;;;;5087367;28;20153;-78
2020/12/12 00:11:17;;;;;;;9.18;5.97;;;17.40;49.50;;;;;;5087135;28;20154;-78
2020/12/12 00:13:50;;;;;;;8.82;6.15;;;17.40;49.50;;;;;;5087968;28;20536;-78
2020/12/12 00:16:18;;;;;;;12.48;6.43;;;17.40;49.50;;;;;;5069938;28;20588;-79
2020/12/12 00:18:48;;;;;;;10.88;6.60;;;17.50;49.50;;;;;;5069906;28;20173;-79
2020/12/12 00:21:15;;;;;;;8.98;6.50;;;17.40;49.60;;;;;;5069676;28;20180;-79
2020/12/12 00:23:43;;;;;;;10.07;6.00;;;17.40;49.60;;;;;;5070000;28;20521;-79
2020/12/12 00:26:10;;;;;;;8.75;6.22;;;17.40;49.70;;;;;;5086963;28;20153;-78
2020/12/12 00:28:36;;;;;;;9.10;6.43;;;17.40;49.70;;;;;;5069661;28;20150;-78
2020/12/12 00:31:03;;;;;;;10.85;6.10;;;17.40;49.70;;;;;;5068876;28;20608;-78
2020/12/12 00:33:35;;;;;;;9.85;6.07;;;17.30;49.60;;;;;;5087176;28;20195;-79
2020/12/12 00:36:01;;;;;;;8.23;6.15;;;17.30;49.70;;;;;;5087249;28;20251;-78
2020/12/12 00:38:36;;;;;;;8.23;6.13;;;17.40;49.60;;;;;;5086956;28;20162;-78
2020/12/12 00:41:06;;;;;;;9.15;6.25;;;17.40;49.70;;;;;;5087116;28;20157;-78
2020/12/12 00:43:34;;;;;;;10.15;6.40;;;17.40;49.70;;;;;;5086695;28;20169;-79
2020/12/12 00:46:01;;;;;;;11.65;6.75;;;17.40;49.90;;;;;;5086761;28;20158;-78
2020/12/12 00:48:28;;;;;;;11.07;6.47;;;17.40;49.80;;;;;;5068519;28;20161;-78
2020/12/12 00:50:56;;;;;;;8.63;6.20;;;17.40;49.80;;;;;;5069361;28;20735;-78
2020/12/12 00:53:22;;;;;;;9.10;6.13;;;17.30;49.60;;;;;;5086759;28;20182;-78
2020/12/12 00:55:53;;;;;;;8.32;6.20;;;17.40;49.60;;;;;;5085978;28;20156;-79
2020/12/12 00:58:19;;;;;;;10.30;6.18;;;17.40;49.50;;;;;;5069241;28;20612;-80
2020/12/12 01:00:47;;;;;;;9.38;5.97;;;17.40;49.60;;;;;;5086604;28;20157;-79
2020/12/12 01:03:14;;;;;;;9.07;6.18;;;17.40;50.30;;;;;;5068470;28;20193;-78
2020/12/12 01:05:49;;;;;;;9.52;6.40;;;17.30;49.60;;;;;;5085987;28;20158;-78
2020/12/12 01:08:21;;;;;;;8.60;5.80;;;17.40;49.70;;;;;;5086407;28;20156;-78
2020/12/12 01:10:55;;;;;;;9.15;6.15;;;17.40;49.60;;;;;;5086200;28;20156;-78
2020/12/12 01:13:22;;;;;;;9.82;6.25;;;17.30;49.60;;;;;;5086681;28;20187;-79
2020/12/12 01:15:49;;;;;;;8.48;5.78;;;17.40;49.50;;;;;;5085607;28;20158;-78
2020/12/12 01:18:16;;;;;;;8.60;5.93;;;17.40;49.50;;;;;;5086418;28;20150;-78
2020/12/12 01:20:43;;;;;;;9.30;6.00;;;17.40;49.60;;;;;;5085863;28;20160;-78
2020/12/12 01:23:09;;;;;;;9.20;6.45;;;17.30;49.70;;;;;;5068055;28;20287;-78
2020/12/12 01:25:37;;;;;;;9.32;6.03;;;17.30;49.90;;;;;;5085922;28;20181;-78
2020/12/12 01:28:06;;;;;;;7.95;6.05;;;17.30;49.90;;;;;;5051864;28;20169;-79
2020/12/12 01:30:32;;;;;;;10.43;6.35;;;17.30;49.90;;;;;;5067991;28;20162;-78
2020/12/12 01:32:57;;;;;;;9.40;6.20;;;17.30;49.90;;;;;;5086062;28;20209;-78
2020/12/12 01:35:23;;;;;;;8.10;5.95;;;17.30;49.80;;;;;;5051487;28;20217;-79
2020/12/12 01:37:51;;;;;;;8.10;5.80;;;17.30;49.60;;;;;;5085640;28;20165;-78
2020/12/12 01:40:18;;;;;;;8.23;6.00;;;17.30;49.60;;;;;;5086289;28;20173;-78
2020/12/12 01:42:44;;;;;;;8.90;6.22;;;17.40;49.70;;;;;;5067753;28;20215;-78
2020/12/12 01:45:19;;;;;;;8.13;6.05;;;17.30;49.80;;;;;;5085944;28;20164;-79
2020/12/12 01:47:45;;;;;;;10.65;6.43;;;17.30;49.90;;;;;;5085683;28;20595;-79
2020/12/12 01:50:11;;;;;;;8.40;5.95;;;17.30;49.80;;;;;;5085540;28;20180;-79
2020/12/12 01:52:38;;;;;;;8.25;5.80;;;17.30;49.90;;;;;;5086044;28;20250;-78
2020/12/12 01:55:10;;;;;;;8.55;5.82;;;17.30;50.00;;;;;;5085495;28;20161;-79
2020/12/12 01:57:36;;;;;;;7.70;5.85;;;17.30;50.50;;;;;;5068651;28;20161;-78
2020/12/12 02:00:03;;;;;;;8.98;6.20;;;17.30;49.70;;;;;;5067935;28;20203;-79
2020/12/12 02:02:32;;;;;;;8.38;6.25;;;17.30;49.60;;;;;;5085910;28;20158;-78
2020/12/12 02:04:59;;;;;;;10.57;6.30;;;17.40;49.70;;;;;;5085926;28;20154;-79
2020/12/12 02:07:26;;;;;;;8.23;6.10;;;17.40;50.00;;;;;;5085797;28;20150;-78
2020/12/12 02:09:54;;;;;;;8.70;6.47;;;17.40;49.70;;;;;;5067734;28;20161;-79
2020/12/12 02:12:20;;;;;;;11.50;6.63;;;17.30;49.80;;;;;;5085354;28;20193;-78
2020/12/12 02:14:47;;;;;;;9.52;6.85;;;17.30;50.00;;;;;;5068179;28;20188;-79
2020/12/12 02:17:13;;;;;;;10.10;7.03;;;17.30;49.80;;;;;;5085532;28;20173;-79
2020/12/12 02:19:40;;;;;;;11.18;6.22;;;17.40;49.80;;;;;;5068581;28;20240;-79
2020/12/12 02:22:07;;;;;;;9.68;6.15;;;17.30;49.80;;;;;;5089315;28;20164;-78
2020/12/12 02:24:34;;;;;;;8.90;6.50;;;17.30;50.00;;;;;;5089406;28;20189;-78
2020/12/12 02:27:05;;;;;;;7.22;5.72;;;17.30;49.90;;;;;;5089774;28;20673;-78
2020/12/12 02:29:48;;;;;;;9.07;6.38;;;17.30;49.80;;;;;;5090115;28;20154;-78
2020/12/12 02:32:15;;;;;;;9.07;6.38;;;17.30;49.80;;;;;;5089420;28;20644;-78
2020/12/12 02:34:41;;;;;;;7.40;5.78;;;17.30;49.90;;;;;;5089837;28;20179;-78
2020/12/12 02:37:08;;;;;;;7.57;5.90;;;17.30;50.00;;;;;;5089322;28;20153;-78
2020/12/12 02:39:43;;;;;;;8.77;6.25;;;17.30;49.90;;;;;;5089359;28;20157;-79
2020/12/12 02:42:10;;;;;;;10.50;6.57;;;17.30;50.00;;;;;;5088886;28;20160;-80
2020/12/12 02:44:36;;;;;;;8.73;6.15;;;17.30;50.00;;;;;;5071546;28;20214;-78
2020/12/12 02:47:02;;;;;;;9.80;5.93;;;17.30;50.30;;;;;;5089119;28;20184;-78
2020/12/12 02:49:30;;;;;;;7.47;6.00;;;17.30;50.20;;;;;;5088629;28;20241;-78
2020/12/12 02:51:57;;;;;;;10.55;6.13;;;17.30;50.00;;;;;;5088873;28;20178;-78
2020/12/12 02:54:24;;;;;;;8.98;6.22;;;17.30;50.00;;;;;;5088684;28;20157;-79
2020/12/12 02:56:50;;;;;;;9.88;6.70;;;17.30;50.00;;;;;;5089095;28;20164;-78
2020/12/12 02:59:16;;;;;;;8.57;5.90;;;17.30;50.00;;;;;;5088813;28;20158;-78
2020/12/12 03:01:44;;;;;;;10.75;6.68;;;17.30;50.10;;;;;;5089329;28;20153;-78
2020/12/12 03:04:10;;;;;;;9.13;6.50;;;17.30;50.20;;;;;;5070850;28;20158;-78
2020/12/12 03:06:37;;;;;;;10.55;6.45;;;17.30;50.20;;;;;;5088819;28;20177;-78
2020/12/12 03:09:03;;;;;;;8.82;5.88;;;17.30;50.10;;;;;;5070758;28;20601;-79
2020/12/12 03:11:30;;;;;;;9.98;6.55;;;17.30;50.30;;;;;;5055173;28;20149;-78
2020/12/12 03:13:57;;;;;;;8.05;5.90;;;17.20;50.30;;;;;;5087760;28;20552;-79
2020/12/12 03:16:31;;;;;;;8.70;6.38;;;17.30;50.30;;;;;;5089161;28;20575;-78
2020/12/12 03:18:58;;;;;;;9.63;6.63;;;17.30;50.10;;;;;;5088755;28;20192;-78
2020/12/12 03:21:24;;;;;;;8.77;6.28;;;17.30;50.10;;;;;;5088435;28;20173;-79
2020/12/12 03:23:51;;;;;;;9.20;6.07;;;17.30;50.00;;;;;;5070658;28;20609;-78
2020/12/12 03:26:19;;;;;;;8.95;6.13;;;17.30;50.00;;;;;;5088025;28;20245;-78
2020/12/12 03:28:46;;;;;;;10.00;6.13;;;17.30;50.00;;;;;;5088670;28;20213;-78
2020/12/12 03:31:13;;;;;;;8.50;6.20;;;17.30;50.20;;;;;;5087107;28;20237;-78
2020/12/12 03:33:40;;;;;;;8.77;5.90;;;17.30;50.10;;;;;;5088193;28;20647;-78
2020/12/12 03:36:05;;;;;;;8.75;6.10;;;17.30;50.10;;;;;;5066877;28;20577;-79
2020/12/12 03:38:34;;;;;;;8.95;6.25;;;17.30;50.10;;;;;;5067204;28;20169;-78
2020/12/12 03:40:59;;;;;;;8.18;5.90;;;17.30;50.00;;;;;;5067996;28;20224;-78
2020/12/12 03:43:31;;;;;;;9.40;6.25;;;17.30;50.10;;;;;;5068333;28;20222;-78
2020/12/12 03:45:58;;;;;;;8.48;5.90;;;17.30;50.10;;;;;;5068016;28;20161;-78
2020/12/12 03:48:23;;;;;;;9.40;6.13;;;17.30;50.20;;;;;;5067548;28;20158;-78
2020/12/12 03:50:49;;;;;;;7.70;5.70;;;17.30;50.30;;;;;;5068141;28;20177;-78
2020/12/12 03:53:15;;;;;;;7.90;5.78;;;17.30;50.30;;;;;;5066732;28;20186;-78
2020/12/12 03:55:40;;;;;;;8.55;6.20;;;17.20;50.30;;;;;;5051593;28;20181;-78
2020/12/12 03:58:06;;;;;;;9.95;6.32;;;17.30;50.30;;;;;;5066874;28;20162;-78
2020/12/12 04:00:32;;;;;;;9.00;6.38;;;17.30;50.30;;;;;;5066345;28;20232;-78
2020/12/12 04:02:58;;;;;;;9.05;6.18;;;17.30;50.30;;;;;;5067834;28;20237;-78
2020/12/12 04:05:25;;;;;;;9.15;6.47;;;17.30;50.30;;;;;;5067571;28;20524;-78
2020/12/12 04:07:50;;;;;;;9.93;6.22;;;17.30;50.30;;;;;;5066787;28;20159;-79
2020/12/12 04:10:18;;;;;;;8.07;5.88;;;17.30;50.30;;;;;;5066406;28;20161;-78
2020/12/12 04:12:44;;;;;;;9.38;6.50;;;17.20;50.30;;;;;;5067939;28;20194;-78
2020/12/12 04:15:10;;;;;;;9.32;6.20;;;17.20;50.40;;;;;;5066357;28;20150;-79
2020/12/12 04:17:35;;;;;;;7.50;6.00;;;17.20;50.40;;;;;;5067131;28;20186;-78
2020/12/12 04:20:06;;;;;;;8.23;5.95;;;17.30;50.40;;;;;;5066263;28;20656;-78
2020/12/12 04:22:32;;;;;;;8.68;5.72;;;17.30;50.40;;;;;;5066245;28;20154;-78
2020/12/12 04:24:58;;;;;;;8.90;6.35;;;17.30;50.30;;;;;;5068306;28;20154;-79
2020/12/12 04:27:30;;;;;;;8.48;6.55;;;17.20;50.40;;;;;;5067246;28;20205;-78
2020/12/12 04:29:57;;;;;;;9.02;6.10;;;17.30;50.30;;;;;;5067377;28;20158;-78
2020/12/12 04:32:24;;;;;;;9.48;6.50;;;17.30;50.40;;;;;;5067279;28;20605;-78
2020/12/12 04:34:50;;;;;;;8.63;6.28;;;17.30;50.30;;;;;;5067763;28;20150;-78
2020/12/12 04:37:16;;;;;;;7.78;6.13;;;17.20;50.30;;;;;;5088594;28;20624;-78
2020/12/12 04:39:42;;;;;;;7.70;5.72;;;17.30;50.30;;;;;;5087327;28;20580;-78
2020/12/12 04:42:08;;;;;;;9.23;5.90;;;17.30;50.30;;;;;;5087633;28;20158;-78
2020/12/12 04:44:34;;;;;;;9.35;7.18;;;17.30;50.30;;;;;;5069609;28;20165;-78
2020/12/12 04:47:00;;;;;;;8.27;6.10;;;17.30;50.30;;;;;;5069114;28;20523;-78
2020/12/12 04:49:28;;;;;;;9.25;6.50;;;17.20;50.40;;;;;;5069451;28;20627;-78
2020/12/12 04:51:54;;;;;;;9.10;6.40;;;17.20;50.50;;;;;;5069525;28;20149;-78
2020/12/12 04:54:22;;;;;;;8.70;6.18;;;17.30;50.40;;;;;;5052095;28;20169;-78
2020/12/12 04:56:48;;;;;;;8.75;5.78;;;17.30;50.40;;;;;;5086940;28;20191;-78
2020/12/12 04:59:16;;;;;;;8.40;5.72;;;17.30;50.30;;;;;;5086417;28;20675;-78
2020/12/12 05:01:48;;;;;;;7.75;5.80;;;17.30;50.40;;;;;;5052446;28;20160;-79
2020/12/12 05:04:13;;;;;;;8.10;6.10;;;17.30;50.50;;;;;;5069021;28;20165;-78
2020/12/12 05:06:40;;;;;;;8.65;6.45;;;17.30;50.50;;;;;;5069179;28;20168;-78
2020/12/12 05:09:08;;;;;;;11.02;5.97;;;17.20;50.60;;;;;;5086924;28;20177;-78
2020/12/12 05:11:35;;;;;;;9.43;6.13;;;17.20;50.70;;;;;;5086852;28;20579;-78
2020/12/12 05:14:00;;;;;;;9.60;5.90;;;17.20;50.60;;;;;;5052302;28;20193;-78
2020/12/12 05:16:26;;;;;;;9.95;7.18;;;17.30;50.40;;;;;;5069350;28;20233;-78
2020/12/12 05:18:52;;;;;;;8.80;6.18;;;17.30;50.50;;;;;;5086943;28;20640;-79
2020/12/12 05:21:17;;;;;;;7.85;5.85;;;17.20;50.40;;;;;;5052362;28;20153;-78
2020/12/12 05:23:44;;;;;;;8.50;5.88;;;17.30;50.40;;;;;;5051923;28;20173;-78
2020/12/12 05:26:12;;;;;;;8.07;6.13;;;17.30;50.40;;;;;;5068779;28;20697;-78
2020/12/12 05:28:41;;;;;;;8.48;5.93;;;17.30;51.20;;;;;;5086940;28;20172;-78
2020/12/12 05:31:08;;;;;;;8.35;6.40;;;17.20;51.20;;;;;;5086648;28;20162;-78
2020/12/12 05:33:34;;;;;;;8.77;6.07;;;17.20;50.60;;;;;;5051729;28;20224;-78
2020/12/12 05:36:01;;;;;;;9.18;6.30;;;17.30;50.50;;;;;;5086835;28;20213;-78
2020/12/12 05:38:27;;;;;;;8.25;5.65;;;17.20;50.50;;;;;;5086290;28;20183;-79
2020/12/12 05:40:55;;;;;;;7.95;5.90;;;17.20;51.30;;;;;;5068050;28;20240;-79
2020/12/12 05:43:29;;;;;;;8.13;6.05;;;17.20;50.70;;;;;;5051549;28;20165;-78
2020/12/12 05:45:54;;;;;;;8.75;5.80;;;17.20;50.60;;;;;;5068867;28;20221;-78
2020/12/12 05:48:21;;;;;;;7.82;6.00;;;17.30;50.70;;;;;;5068281;28;20168;-78
2020/12/12 05:50:47;;;;;;;8.32;6.32;;;17.30;50.60;;;;;;5052039;28;20173;-79
2020/12/12 05:53:13;;;;;;;7.70;6.13;;;17.30;50.70;;;;;;5052198;28;20364;-78
2020/12/12 05:55:38;;;;;;;7.07;5.72;;;17.20;50.70;;;;;;5053886;28;20181;-78
2020/12/12 05:58:04;;;;;;;8.30;5.78;;;17.20;50.70;;;;;;5090601;28;20604;-79
2020/12/12 06:00:33;;;;;;;7.93;5.88;;;17.20;50.60;;;;;;5090349;28;20149;-78
2020/12/12 06:03:05;;;;;;;8.63;6.10;;;17.20;50.70;;;;;;5072197;28;20164;-78
2020/12/12 06:05:34;;;;;;;8.98;6.15;;;17.20;50.80;;;;;;5071947;28;20157;-78
2020/12/12 06:08:09;;;;;;;8.65;5.82;;;17.20;50.70;;;;;;5090095;28;20171;-79
2020/12/12 06:10:35;;;;;;;8.40;6.32;;;17.20;50.70;;;;;;5072151;28;20248;-78
2020/12/12 06:13:04;;;;;;;7.03;5.50;;;17.20;50.70;;;;;;5090157;28;20193;-79
2020/12/12 06:15:40;;;;;;;7.90;6.30;;;17.20;50.60;;;;;;5090130;28;20150;-78
2020/12/12 06:18:27;;;;;;;9.35;6.22;;;17.20;50.60;;;;;;5089206;28;20180;-79
2020/12/12 06:20:57;;;;;;;8.93;5.63;;;17.20;50.70;;;;;;5089516;28;20249;-78
2020/12/12 06:23:25;;;;;;;9.10;6.25;;;17.30;50.60;;;;;;5054515;28;20164;-78
2020/12/12 06:25:50;;;;;;;9.15;5.93;;;17.20;50.60;;;;;;5071883;28;20153;-78
2020/12/12 06:28:21;;;;;;;8.85;6.43;;;17.20;50.70;;;;;;5071472;28;20157;-78
2020/12/12 06:30:49;;;;;;;7.88;5.88;;;17.20;50.70;;;;;;5054772;28;20166;-78
2020/12/12 06:33:14;;;;;;;7.43;5.68;;;17.20;50.70;;;;;;5071558;28;20277;-78
2020/12/12 06:35:40;;;;;;;7.25;5.40;;;17.20;50.80;;;;;;5088947;28;20217;-78
2020/12/12 06:38:26;;;;;;;8.57;6.03;;;17.20;50.70;;;;;;5089097;28;20193;-78
2020/12/12 06:40:54;;;;;;;8.77;5.57;;;17.20;50.80;;;;;;5088161;28;20196;-79
2020/12/12 06:43:31;;;;;;;8.00;6.43;;;17.20;50.70;;;;;;5054327;28;20169;-78
2020/12/12 06:46:00;;;;;;;9.07;6.35;;;17.20;50.70;;;;;;5054027;28;20188;-78
2020/12/12 06:48:28;;;;;;;9.13;6.20;;;17.20;50.80;;;;;;5071396;28;20184;-79
2020/12/12 06:50:57;;;;;;;7.70;5.90;;;17.20;50.90;;;;;;5053364;28;20154;-78
2020/12/12 06:53:24;;;;;;;8.38;6.00;;;17.20;50.80;;;;;;5070005;28;20190;-79
2020/12/12 06:56:09;;;;;;;8.23;5.75;;;17.20;50.80;;;;;;5088438;28;20651;-78
2020/12/12 06:58:35;;;;;;;8.07;5.80;;;17.20;50.80;;;;;;5088063;28;20609;-78
2020/12/12 07:01:30;;;;;;;8.23;6.05;;;17.20;50.70;;;;;;5087324;28;20150;-78
2020/12/12 07:04:04;;;;;;;8.13;5.90;;;17.20;50.70;;;;;;5088831;28;20177;-78
2020/12/12 07:06:34;;;;;;;9.50;6.32;;;17.20;50.70;;;;;;5070177;28;20611;-78
2020/12/12 07:09:03;;;;;;;9.73;6.53;;;17.20;50.70;;;;;;5087458;28;20156;-78
2020/12/12 07:11:34;;;;;;;9.23;6.07;;;17.20;50.70;;;;;;5070539;28;20630;-79
2020/12/12 07:14:02;;;;;;;8.02;6.30;;;17.20;50.70;;;;;;5070369;28;20640;-79
2020/12/12 07:16:28;;;;;;;9.23;6.22;;;17.20;50.90;;;;;;5069991;28;20241;-78
2020/12/12 07:18:55;;;;;;;7.88;5.72;;;17.20;50.90;;;;;;5088621;28;20239;-78
2020/12/12 07:21:21;;;;;;;7.05;5.80;;;17.20;51.00;;;;;;5070386;28;20158;-79
2020/12/12 07:23:48;;;;;;;7.65;5.75;;;17.20;51.00;;;;;;5088457;28;20203;-79
2020/12/12 07:26:15;;;;;;;11.50;6.50;;;17.20;51.00;;;;;;5070110;28;20229;-78
2020/12/12 07:28:50;;;;;;;8.80;6.07;;;17.20;50.90;;;;;;5070686;28;20193;-78
2020/12/12 07:31:16;;;;;;;10.32;6.05;;;17.20;50.80;;;;;;5087335;28;20152;-78
2020/12/12 07:33:47;;;;;;;8.15;6.13;;;17.20;50.90;;;;;;5087777;28;20475;-78
2020/12/12 07:36:22;;;;;;;8.55;5.55;;;17.20;50.90;;;;;;5066258;28;20226;-78
2020/12/12 07:38:56;;;;;;;8.52;5.82;;;17.20;51.00;;;;;;5067117;28;20162;-79
2020/12/12 07:41:30;;;;;;;7.10;5.70;;;17.20;50.90;;;;;;5067081;28;20177;-78
2020/12/12 07:43:57;;;;;;;11.30;5.70;;;17.20;50.90;;;;;;5063026;28;20596;-79
2020/12/12 07:46:39;;;;;;;7.93;5.70;;;17.20;51.00;;;;;;5061814;28;20168;-79
2020/12/12 07:49:05;;;;;;;7.63;5.85;;;17.20;51.00;;;;;;5061959;28;20170;-78
2020/12/12 07:51:33;;;;;;;8.88;5.95;;;17.10;51.10;;;;;;5061048;28;20166;-79
2020/12/12 07:53:59;;;;;;;7.43;5.57;;;17.10;51.30;;;;;;5061408;28;20544;-79
2020/12/12 07:56:25;;;;;;;8.88;5.57;;;17.20;51.30;;;;;;5059222;28;20189;-80
2020/12/12 07:59:06;;;;;;;8.38;5.93;;;17.10;51.20;;;;;;5057739;28;20180;-79
2020/12/12 08:01:32;;;;;;;7.20;5.75;;;17.20;51.20;;;;;;5056081;28;20154;-80
2020/12/12 08:03:58;;;;;;;8.93;5.90;;;17.20;51.10;;;;;;5056407;28;20181;-79
2020/12/12 08:06:27;;;;;;;8.02;5.82;;;17.20;51.00;;;;;;5056204;28;20154;-80
2020/12/12 08:08:56;;;;;;;10.00;6.10;;;17.20;51.10;;;;;;5056322;28;20154;-79
2020/12/12 08:11:22;;;;;;;12.52;5.80;;;17.20;51.20;;;;;;5057727;28;20181;-80
2020/12/12 08:13:48;;;;;;;8.00;5.60;;;17.20;51.10;;;;;;5057142;28;20194;-80
2020/12/12 08:16:27;;;;;;;10.50;6.00;;;17.20;51.10;;;;;;5057281;28;20621;-80
2020/12/12 08:19:06;;;;;;;11.70;6.10;;;17.20;51.00;;;;;;5056004;28;20161;-78
2020/12/12 08:21:33;;;;;;;9.50;5.75;;;17.20;51.20;;;;;;5055907;28;20158;-79
2020/12/12 08:23:59;;;;;;;10.93;5.85;;;17.20;51.00;;;;;;5055792;28;20166;-79
2020/12/12 08:26:25;;;;;;;8.68;6.10;;;17.30;51.20;;;;;;5055276;28;20580;-80
2020/12/12 08:28:51;;;;;;;9.95;5.72;;;17.20;51.90;;;;;;5056569;28;20158;-80
2020/12/12 08:31:18;;;;;;;9.10;5.75;;;17.30;51.20;;;;;;5056493;28;20236;-80
2020/12/12 08:33:45;;;;;;;10.20;6.05;;;17.30;51.30;;;;;;5055801;28;20190;-79
2020/12/12 08:36:18;;;;;;;8.00;5.85;;;17.30;51.40;;;;;;5057698;28;20633;-79
2020/12/12 08:38:54;;;;;;;11.60;5.88;;;17.20;51.40;;;;;;5059857;28;20185;-80
2020/12/12 08:41:20;;;;;;;8.65;5.70;;;17.30;51.30;;;;;;5060081;28;20173;-79
2020/12/12 08:43:46;;;;;;;10.35;6.07;;;17.30;51.30;;;;;;5059398;28;20625;-79
2020/12/12 08:46:15;;;;;;;14.75;5.72;;;17.30;51.10;;;;;;5061434;28;20154;-80
2020/12/12 08:48:42;;;;;;;8.60;5.40;;;17.40;51.10;;;;;;5061828;28;20157;-78
2020/12/12 08:51:09;;;;;;;7.93;5.63;;;17.30;51.20;;;;;;5066139;28;20181;-79
2020/12/12 08:53:44;;;;;;;9.95;5.90;;;17.30;51.30;;;;;;5061595;28;20197;-77
2020/12/12 08:56:14;;;;;;;11.30;5.93;;;17.30;51.40;;;;;;5061968;28;20180;-80
2020/12/12 08:58:47;;;;;;;12.60;5.57;;;17.30;51.80;;;;;;5059814;28;20158;-81
2020/12/12 09:01:28;;;;;;;14.45;6.10;;;17.40;51.40;;;;;;5062174;28;20162;-80
2020/12/12 09:04:14;;;;;;;12.70;6.07;;;17.50;51.40;;;;;;5060880;28;20181;-78
2020/12/12 09:06:54;;;;;;;13.43;5.97;;;17.40;51.50;;;;;;5060530;28;20154;-79
2020/12/12 09:09:29;;;;;;;13.65;5.90;;;17.30;51.60;;;;;;5059026;28;20173;-78
2020/12/12 09:12:07;;;;;;;10.15;5.90;;;17.30;51.80;;;;;;5060165;28;20158;-79
2020/12/12 09:14:35;;;;;;;17.98;6.38;;;17.30;51.70;;;;;;5060579;28;20173;-79
2020/12/12 09:17:13;;;;;;;12.32;5.57;;;17.30;51.80;;;;;;5060212;28;20505;-80
2020/12/12 09:19:40;;;;;;;15.45;6.40;;;17.30;51.70;;;;;;5061596;28;20153;-80
2020/12/12 09:22:27;;;;;;;8.15;5.82;;;17.30;51.90;;;;;;5060380;28;20150;-78
2020/12/12 09:24:54;;;;;;;14.77;6.10;;;17.30;51.90;;;;;;5063111;28;20172;-79
2020/12/12 09:27:21;;;;;;;14.15;5.80;;;17.30;51.80;;;;;;5060954;28;20158;-79
2020/12/12 09:29:47;;;;;;;14.38;6.15;;;17.30;51.80;;;;;;5041853;28;20204;-79
2020/12/12 09:32:17;;;;;;;13.93;6.10;;;17.40;51.70;;;;;;5060857;28;20154;-79
2020/12/12 09:34:42;;;;;;;11.95;5.70;;;17.40;51.70;;;;;;5060811;28;20207;-78
2020/12/12 09:37:09;;;;;;;11.32;5.57;;;17.30;51.70;;;;;;5080395;28;20227;-79
2020/12/12 09:39:35;;;;;;;11.20;5.68;;;17.30;51.70;;;;;;5080696;28;20168;-79
2020/12/12 09:42:02;;;;;;;9.90;5.95;;;17.40;51.70;;;;;;5078106;28;20146;-79
2020/12/12 09:44:29;;;;;;;9.75;5.82;;;17.40;51.60;;;;;;5062055;28;20153;-79
2020/12/12 09:46:56;;;;;;;12.55;6.35;;;17.40;51.70;;;;;;5061663;28;20249;-80
2020/12/12 09:49:31;;;;;;;10.70;6.03;;;17.30;51.80;;;;;;5078282;28;20149;-79
2020/12/12 09:51:59;;;;;;;11.75;5.55;;;17.40;51.90;;;;;;5061839;28;20153;-79
2020/12/12 09:54:25;;;;;;;8.80;5.40;;;17.30;52.10;;;;;;5082023;28;20219;-78
2020/12/12 09:56:52;;;;;;;12.02;5.80;;;17.30;52.30;;;;;;5082254;28;20196;-79
2020/12/12 09:59:19;;;;;;;12.18;6.18;;;17.40;52.20;;;;;;5080184;28;20630;-79
2020/12/12 10:01:49;;;;;;;12.05;5.50;;;17.40;52.10;;;;;;5081438;28;20246;-78
2020/12/12 10:04:15;;;;;;;12.30;6.03;;;17.30;52.20;;;;;;5080792;28;20273;-78
2020/12/12 10:06:45;;;;;;;9.18;5.43;;;17.40;52.50;;;;;;5082184;28;20154;-77
2020/12/12 10:09:12;;;;;;;11.65;5.90;;;17.50;52.30;;;;;;5082383;28;20161;-78
2020/12/12 10:11:39;;;;;;;9.73;5.93;;;17.50;52.20;;;;;;5079829;28;20150;-78
2020/12/12 10:14:06;;;;;;;12.50;5.97;;;17.60;52.30;;;;;;5083405;28;20189;-78
2020/12/12 10:16:32;;;;;;;13.10;5.90;;;17.50;52.10;;;;;;5082666;28;20161;-79
2020/12/12 10:18:58;;;;;;;9.80;5.82;;;17.50;52.30;;;;;;5082463;28;20164;-79
2020/12/12 10:21:24;;;;;;;12.73;6.13;;;17.50;52.00;;;;;;5063340;28;20695;-80
2020/12/12 10:23:50;;;;;;;15.68;6.03;;;17.60;52.00;;;;;;5061221;28;20173;-79
2020/12/12 10:26:19;;;;;;;14.32;5.93;;;17.60;52.20;;;;;;5061386;28;20154;-79
2020/12/12 10:28:44;;;;;;;13.00;5.72;;;17.50;52.20;;;;;;5079189;28;20157;-79
2020/12/12 10:31:10;;;;;;;11.90;6.10;;;17.50;52.30;;;;;;5044031;28;20161;-79
2020/12/12 10:33:37;;;;;;;15.85;6.15;;;17.50;52.50;;;;;;5060953;28;20651;-79
2020/12/12 10:36:02;;;;;;;17.08;6.20;;;17.50;52.60;;;;;;5080921;28;20240;-79
2020/12/12 10:38:29;;;;;;;12.60;5.90;;;17.50;52.70;;;;;;5060599;28;20227;-78
2020/12/12 10:41:11;;;;;;;13.55;6.18;;;17.50;52.70;;;;;;5060394;28;20165;-77
2020/12/12 10:43:43;;;;;;;9.77;5.78;;;17.50;52.90;;;;;;5083698;28;20161;-78
2020/12/12 10:46:09;;;;;;;12.52;5.68;;;17.60;52.70;;;;;;5082665;28;20272;-79
2020/12/12 10:48:44;;;;;;;14.02;5.78;;;17.60;52.90;;;;;;5067985;28;20201;-79
2020/12/12 10:51:13;;;;;;;14.35;5.97;;;17.60;52.90;;;;;;5087158;28;20157;-78
2020/12/12 10:53:50;;;;;;;10.70;6.03;;;17.60;53.00;;;;;;5066741;28;20216;-77
2020/12/12 10:56:16;;;;;;;16.05;6.53;;;17.60;52.90;;;;;;5086334;28;20150;-77
2020/12/12 10:58:42;;;;;;;14.30;5.95;;;17.60;53.00;;;;;;5069046;28;20145;-77
2020/12/12 11:01:08;;;;;;;13.75;6.65;;;17.60;53.00;;;;;;5083561;28;20262;-77
2020/12/12 11:03:33;;;;;;;12.60;5.90;;;17.60;53.00;;;;;;5064886;28;20169;-79
2020/12/12 11:05:59;;;;;;;13.30;5.45;;;17.60;53.10;;;;;;5068123;28;20172;-77
2020/12/12 11:08:25;;;;;;;14.43;5.45;;;17.70;53.40;;;;;;5049671;28;20214;-76
2020/12/12 11:10:51;;;;;;;12.85;5.97;;;17.70;53.00;;;;;;5066605;28;20173;-79
2020/12/12 11:13:16;;;;;;;13.60;6.05;;;17.80;52.90;;;;;;5084921;28;20251;-78
2020/12/12 11:15:48;;;;;;;12.05;5.93;;;17.80;53.00;;;;;;5083837;28;20609;-80
2020/12/12 11:18:14;;;;;;;12.13;6.25;;;17.80;53.10;;;;;;5063366;28;20181;-77
2020/12/12 11:20:41;;;;;;;10.82;5.82;;;17.80;53.00;;;;;;5084171;28;20153;-78
2020/12/12 11:23:08;;;;;;;11.55;5.45;;;17.70;53.00;;;;;;5083153;28;20162;-78
2020/12/12 11:25:37;;;;;;;9.68;5.57;;;17.80;53.10;;;;;;5083380;28;20336;-77
2020/12/12 11:28:02;;;;;;;10.68;5.40;;;17.80;53.00;;;;;;5081137;28;20161;-79
2020/12/12 11:30:30;;;;;;;10.68;5.25;;;17.80;53.40;;;;;;5060195;28;20512;-77
2020/12/12 11:32:58;;;;;;;18.48;5.95;;;17.80;52.90;;;;;;5044117;28;20189;-79
2020/12/12 11:38:21;;;;;;;11.15;6.07;;;17.80;53.30;;;;;;5064159;28;20146;-78
2020/12/12 11:48:38;;;;;;;14.07;5.60;;;17.80;53.40;;;;;;5082386;28;20153;-78
2020/12/12 11:51:04;;;;;;;12.75;6.13;;;17.80;53.40;;;;;;5081483;28;20240;-79
2020/12/12 11:53:30;;;;;;;14.27;5.53;;;17.80;53.50;;;;;;5044088;28;20232;-77
2020/12/12 11:55:57;;;;;;;15.50;5.60;;;17.80;53.40;;;;;;5044817;28;20219;-78
2020/12/12 11:58:23;;;;;;;15.52;5.63;;;17.80;53.50;;;;;;5042894;28;20159;-77
2020/12/12 12:00:48;;;;;;;13.57;5.63;;;17.80;53.50;;;;;;5026504;28;20220;-78
2020/12/12 12:03:15;;;;;;;14.65;5.53;;;17.90;54.10;;;;;;5041707;28;20639;-78
2020/12/12 12:05:42;;;;;;;20.27;6.22;;;17.90;53.50;;;;;;5042284;28;20168;-77
2020/12/12 12:08:19;;;;;;;11.35;5.60;;;17.90;53.50;;;;;;5060226;28;20222;-79
2020/12/12 12:13:37;;;;;;;17.05;6.25;;;17.90;53.80;;;;;;5058577;28;20224;-78
2020/12/12 12:16:04;;;;;;;14.10;5.93;;;17.80;54.00;;;;;;5061880;28;20255;-78
2020/12/12 12:18:34;;;;;;;15.90;5.45;;;17.80;54.00;;;;;;5062557;28;20158;-77
2020/12/12 12:21:01;;;;;;;17.35;6.53;;;17.80;54.00;;;;;;5026565;28;20517;-80
2020/12/12 12:23:27;;;;;;;17.25;6.18;;;17.80;54.10;;;;;;5026739;28;20170;-80
2020/12/12 12:25:55;;;;;;;18.27;6.13;;;17.80;54.10;;;;;;5026385;28;20153;-80
2020/12/12 12:28:33;;;;;;;;;;;;;;;;;;;;;
2020/12/12 12:31:01;;;;;;;13.15;5.70;;;17.80;54.20;;;;;;5033583;28;20229;-79
2020/12/12 12:33:29;;;;;;;15.43;6.03;;;17.80;54.30;;;;;;5060413;28;20284;-80
2020/12/12 12:35:56;;;;;;;14.50;5.93;;;17.80;54.20;;;;;;5060906;28;20259;-79
2020/12/12 12:38:22;;;;;;;13.05;5.90;;;17.70;54.30;;;;;;5061733;28;20161;-80
2020/12/12 12:40:52;;;;;;;11.50;5.60;;;17.80;54.10;;;;;;5043816;28;20280;-79
2020/12/12 12:43:26;;;;;;;16.45;6.00;;;17.80;54.20;;;;;;5058474;28;20201;-78
2020/12/12 12:45:52;;;;;;;14.85;5.90;;;17.80;54.90;;;;;;5042352;28;20162;-79
2020/12/12 12:48:18;;;;;;;13.18;5.43;;;17.80;54.30;;;;;;5061147;28;20165;-78
2020/12/12 12:50:47;;;;;;;13.63;5.90;;;17.80;54.20;;;;;;5061572;28;20161;-78
2020/12/12 12:53:16;;;;;;;21.40;6.22;;;17.90;54.20;;;;;;5045431;28;20189;-79
2020/12/12 12:56:20;;;;;;;15.52;5.28;;;17.90;54.30;;;;;;5079046;28;20197;-79
2020/12/12 12:58:47;;;;;;;12.38;6.03;;;17.90;54.20;;;;;;5070336;28;20231;-80
2020/12/12 13:01:23;;;;;;;14.27;5.60;;;17.90;54.30;;;;;;5065794;28;20164;-78
2020/12/12 13:03:52;;;;;;;16.67;6.25;;;17.90;54.30;;;;;;5082413;28;20169;-78